createdAt,value
2022-08-09T00:01:54.443Z,100031.75
2022-08-09T00:04:33.713Z,100020.56
2022-08-09T00:07:07.874Z,100028.19
2022-08-09T00:09:39.978Z,100025.44
2022-08-09T00:12:15.601Z,100030.75
2022-08-09T00:14:56.650Z,100023.19
2022-08-09T00:18:07.745Z,100018.00
2022-08-09T00:20:15.305Z,100015.13
2022-08-09T00:22:43.234Z,100022.44
2022-08-09T00:25:23.375Z,100016.88
2022-08-09T00:28:00.540Z,100018.28
2022-08-09T00:30:33.879Z,100013.69
2022-08-09T00:33:02.583Z,100014.84
2022-08-09T00:35:43.360Z,100013.69
2022-08-09T00:38:13.895Z,100016.69
2022-08-09T00:40:52.903Z,100014.69
2022-08-09T00:44:11.160Z,100014.16
2022-08-09T00:46:28.410Z,100012.56
2022-08-09T00:49:00.452Z,100014.84
2022-08-09T00:51:33.875Z,100016.84
2022-08-09T00:54:10.620Z,100012.41
2022-08-09T00:56:38.392Z,100013.97
2022-08-09T00:59:08.156Z,100008.81
2022-08-09T01:01:45.234Z,100007.69
2022-08-09T01:04:35.392Z,99998.94
2022-08-09T01:08:05.584Z,100000.50
2022-08-09T01:11:21.963Z,99999.50
2022-08-09T01:14:18.414Z,99997.34
2022-08-09T01:16:55.472Z,100001.38
2022-08-09T01:20:20.729Z,100010.81
2022-08-09T01:24:02.237Z,100004.81
2022-08-09T01:26:36.782Z,100004.53
2022-08-09T01:29:07.251Z,100004.50
2022-08-09T01:32:28.199Z,100007.53
2022-08-09T01:34:29.473Z,100008.41
2022-08-09T01:37:00.888Z,100000.81
2022-08-09T01:39:35.742Z,99999.94
2022-08-09T01:42:11.248Z,100001.53
2022-08-09T01:44:41.547Z,100004.66
2022-08-09T01:47:11.583Z,99999.94
2022-08-09T01:49:43.158Z,99997.63
2022-08-09T01:52:21.250Z,100005.81
2022-08-09T01:54:57.761Z,99990.06
2022-08-09T01:57:40.335Z,99983.31
2022-08-09T02:00:34.666Z,99982.88
2022-08-09T02:03:07.458Z,99988.16
2022-08-09T02:06:03.792Z,99986.16
2022-08-09T02:08:58.053Z,99982.75
2022-08-09T02:11:40.532Z,99995.06
2022-08-09T02:14:25.425Z,99989.34
2022-08-09T02:17:15.553Z,99994.19
2022-08-09T02:19:46.215Z,99996.50
2022-08-09T02:22:46.407Z,99998.22
2022-08-09T02:25:24.603Z,99981.59
2022-08-09T02:28:24.276Z,99982.03
2022-08-09T02:31:06.576Z,99986.16
2022-08-09T02:34:06.375Z,99985.88
2022-08-09T02:36:42.342Z,99987.31
2022-08-09T02:39:33.425Z,99993.06
2022-08-09T02:42:29.344Z,99993.94
2022-08-09T02:45:15.360Z,99990.03
2022-08-09T02:47:59.225Z,99988.47
2022-08-09T02:50:39.949Z,99982.16
2022-08-09T02:53:26.870Z,99988.19
2022-08-09T02:55:59.232Z,99993.34
2022-08-09T02:58:37.137Z,99992.75
2022-08-09T03:01:11.249Z,99981.59
2022-08-09T03:04:16.677Z,99988.47
2022-08-09T03:06:42.872Z,99985.44
2022-08-09T03:09:15.780Z,99984.44
2022-08-09T03:12:05.944Z,99981.75
2022-08-09T03:14:39.667Z,99977.31
2022-08-09T03:17:20.534Z,99974.13
2022-08-09T03:20:05.281Z,99978.16
2022-08-09T03:22:44.742Z,99976.00
2022-08-09T03:25:26.379Z,99978.84
2022-08-09T03:28:05.494Z,99979.56
2022-08-09T03:30:41.125Z,99978.13
2022-08-09T03:33:19.250Z,99980.00
2022-08-09T03:36:13.484Z,99988.47
2022-08-09T03:38:44.762Z,99986.19
2022-08-09T03:41:16.715Z,99981.84
2022-08-09T03:44:03.606Z,99977.56
2022-08-09T03:46:36.515Z,99976.84
2022-08-09T03:49:08.656Z,99980.16
2022-08-09T03:51:56.331Z,99978.44
2022-08-09T03:54:38.559Z,99980.31
2022-08-09T03:57:20.018Z,99981.88
2022-08-09T03:59:54.651Z,99976.28
2022-08-09T04:02:29.689Z,99984.59
2022-08-09T04:05:05.693Z,99983.44
2022-08-09T04:07:52.536Z,99987.31
2022-08-09T04:10:29.578Z,99986.75
2022-08-09T04:13:04.050Z,99992.47
2022-08-09T04:16:17.173Z,99986.16
2022-08-09T04:18:22.272Z,99993.88
2022-08-09T04:20:53.746Z,99995.34
2022-08-09T04:23:25.029Z,99999.78
2022-08-09T04:25:55.984Z,100005.66
2022-08-09T04:28:33.483Z,99994.75
2022-08-09T04:31:08.588Z,100011.41
2022-08-09T04:33:53.113Z,100008.53
2022-08-09T04:36:29.942Z,100019.69
2022-08-09T04:39:04.215Z,100017.28
2022-08-09T04:41:43.437Z,100009.22
2022-08-09T04:44:14.596Z,100018.56
2022-08-09T04:46:59.228Z,100019.28
2022-08-09T04:49:53.049Z,100021.16
2022-08-09T04:52:28.049Z,100023.59
2022-08-09T04:55:00.174Z,100021.44
2022-08-09T04:57:58.828Z,100036.03
2022-08-09T05:00:19.133Z,100034.63
2022-08-09T05:02:52.529Z,100034.03
2022-08-09T05:05:32.471Z,100035.47
2022-08-09T05:08:14.785Z,100038.22
2022-08-09T05:10:44.575Z,100045.38
2022-08-09T05:13:14.565Z,100044.81
2022-08-09T05:15:52.113Z,100041.50
2022-08-09T05:18:55.057Z,100040.94
2022-08-09T05:21:23.090Z,100043.25
2022-08-09T05:24:00.307Z,100044.41
2022-08-09T05:26:37.376Z,100052.16
2022-08-09T05:29:23.934Z,100050.13
2022-08-09T05:31:57.649Z,100055.28
2022-08-09T05:34:32.643Z,100051.28
2022-08-09T05:37:07.238Z,100055.97
2022-08-09T05:39:43.797Z,100058.88
2022-08-09T05:42:17.598Z,100061.59
2022-08-09T05:44:52.531Z,100063.44
2022-08-09T05:47:23.868Z,100066.75
2022-08-09T05:50:30.097Z,100063.31
2022-08-09T05:52:53.787Z,100074.19
2022-08-09T05:55:24.122Z,100062.09
2022-08-09T05:57:56.650Z,100074.06
2022-08-09T06:00:31.248Z,100071.88
2022-08-09T06:03:10.847Z,100071.81
2022-08-09T06:05:57.662Z,100075.06
2022-08-09T06:08:33.402Z,100077.66
2022-08-09T06:11:03.160Z,100074.06
2022-08-09T06:13:47.541Z,100084.16
2022-08-09T06:16:16.351Z,100086.31
2022-08-09T06:18:45.553Z,100083.94
2022-08-09T06:21:16.335Z,100080.25
2022-08-09T06:23:58.857Z,100084.06
2022-08-09T06:26:31.557Z,100081.53
2022-08-09T06:29:05.120Z,100084.47
2022-08-09T06:31:40.126Z,100091.16
2022-08-09T06:34:26.351Z,100086.25
2022-08-09T06:36:59.662Z,100086.03
2022-08-09T06:39:57.422Z,100081.63
2022-08-09T06:42:24.682Z,100087.22
2022-08-09T06:44:57.463Z,100082.03
2022-08-09T06:47:30.251Z,100086.63
2022-08-09T06:50:14.050Z,100087.81
2022-08-09T06:52:49.135Z,100093.34
2022-08-09T06:55:24.267Z,100089.28
2022-08-09T06:58:02.844Z,100087.94
2022-08-09T07:00:50.510Z,100097.91
2022-08-09T07:03:28.405Z,100094.63
2022-08-09T07:06:04.893Z,100100.44
2022-08-09T07:08:39.546Z,100097.03
2022-08-09T07:11:12.604Z,100103.34
2022-08-09T07:13:44.957Z,100101.16
2022-08-09T07:16:49.809Z,100104.75
2022-08-09T07:19:55.556Z,100097.13
2022-08-09T07:22:34.819Z,100105.94
2022-08-09T07:25:09.780Z,100099.88
2022-08-09T07:27:53.304Z,100096.28
2022-08-09T07:31:30.593Z,100101.88
2022-08-09T07:34:20.711Z,100106.31
2022-08-09T07:46:40.918Z,100097.00
2022-08-09T07:53:13.172Z,100093.31
2022-08-09T07:56:03.320Z,100087.53
2022-08-09T07:58:35.344Z,100091.75
2022-08-09T08:01:10.926Z,100095.13
2022-08-09T08:03:40.988Z,100101.69
2022-08-09T08:06:14.372Z,100093.31
2022-08-09T08:09:02.415Z,100094.75
2022-08-09T08:12:09.830Z,100095.56
2022-08-09T08:14:24.005Z,100095.22
2022-08-09T08:17:07.864Z,100091.94
2022-08-09T08:19:37.867Z,100099.19
2022-08-09T08:22:06.579Z,100097.50
2022-08-09T08:24:40.054Z,100092.38
2022-08-09T08:27:16.517Z,100095.94
2022-08-09T08:29:50.070Z,100098.47
2022-08-09T08:32:29.150Z,100092.81
2022-08-09T08:34:59.723Z,100103.41
2022-08-09T08:37:40.795Z,100094.97
2022-08-09T08:40:12.210Z,100088.72
2022-08-09T08:42:46.998Z,100100.63
2022-08-09T08:45:51.427Z,100096.03
2022-08-09T08:48:24.113Z,100099.22
2022-08-09T08:50:59.253Z,100098.72
2022-08-09T08:53:32.291Z,100101.03
2022-08-09T08:56:16.882Z,100105.38
2022-08-09T08:58:56.913Z,100092.69
2022-08-09T09:01:44.687Z,100099.91
2022-08-09T09:04:15.077Z,100092.81
2022-08-09T09:07:00.963Z,100098.38
2022-08-09T09:09:58.417Z,100096.69
2022-08-09T09:12:29.279Z,100091.72
2022-08-09T09:15:02.585Z,100088.34
2022-08-09T09:17:49.417Z,100096.19
2022-08-09T09:20:20.603Z,100090.34
2022-08-09T09:23:02.056Z,100096.66
2022-08-09T09:26:04.401Z,100101.41
2022-08-09T09:29:01.802Z,100105.78
2022-08-09T09:32:03.523Z,100096.34
2022-08-09T09:34:18.417Z,100092.28
2022-08-09T09:36:54.131Z,100090.53
2022-08-09T09:39:50.440Z,100087.78
2022-08-09T09:42:29.689Z,100096.50
2022-08-09T09:45:08.323Z,100100.69
2022-08-09T09:47:47.687Z,100099.16
2022-08-09T09:50:23.050Z,100105.78
2022-08-09T09:52:56.716Z,100100.72
2022-08-09T09:55:31.356Z,100103.97
2022-08-09T09:58:17.346Z,100093.19
2022-08-09T10:00:58.791Z,100096.38
2022-08-09T10:03:57.849Z,100098.03
2022-08-09T10:06:43.507Z,100101.41
2022-08-09T10:09:23.167Z,100098.38
2022-08-09T10:12:35.840Z,100088.63
2022-08-09T10:15:50.802Z,100093.38
2022-08-09T10:18:12.864Z,100086.50
2022-08-09T10:20:45.092Z,100076.66
2022-08-09T10:23:20.432Z,100084.75
2022-08-09T10:26:07.839Z,100081.19
2022-08-09T10:28:48.595Z,100083.97
2022-08-09T10:34:32.441Z,100079.22
2022-08-09T10:37:00.933Z,100070.59
2022-08-09T10:39:40.724Z,100067.38
2022-08-09T10:42:18.720Z,100061.53
2022-08-09T10:45:11.928Z,100066.06
2022-08-09T10:48:30.209Z,100071.34
2022-08-09T10:51:53.044Z,100062.44
2022-08-09T10:54:27.009Z,100065.03
2022-08-09T10:57:15.509Z,100070.00
2022-08-09T10:59:57.360Z,100060.16
2022-08-09T11:03:18.034Z,100051.63
2022-08-09T11:05:31.010Z,100054.72
2022-08-09T11:08:47.982Z,100047.72
2022-08-09T11:11:21.958Z,100048.25
2022-08-09T11:14:35.578Z,100050.91
2022-08-09T11:17:26.553Z,100046.19
2022-08-09T11:20:22.121Z,100048.22
2022-08-09T11:22:56.660Z,100035.78
2022-08-09T11:25:45.427Z,100042.06
2022-08-09T11:28:56.351Z,100042.63
2022-08-09T11:31:49.668Z,100034.63
2022-08-09T11:34:54.674Z,100035.47
2022-08-09T11:37:40.514Z,100037.69
2022-08-09T11:40:33.921Z,100038.47
2022-08-09T11:43:03.865Z,100034.72
2022-08-09T11:45:42.572Z,100026.16
2022-08-09T11:48:26.815Z,100033.19
2022-08-09T11:52:49.142Z,100030.00
2022-08-09T11:54:27.472Z,100030.00
2022-08-09T11:57:56.448Z,100029.56
2022-08-09T12:00:32.814Z,100013.97
2022-08-09T12:03:10.021Z,100020.81
2022-08-09T12:05:55.663Z,100016.13
2022-08-09T12:08:26.925Z,100009.44
2022-08-09T12:11:01.759Z,100015.94
2022-08-09T12:14:10.228Z,100017.66
2022-08-09T12:16:42.874Z,100011.94
2022-08-09T12:19:13.498Z,100007.22
2022-08-09T12:21:48.678Z,100008.13
2022-08-09T12:24:25.175Z,100000.31
2022-08-09T12:29:15.614Z,99994.34
2022-08-09T12:30:02.065Z,100001.69
2022-08-09T12:32:45.088Z,99993.31
2022-08-09T12:35:19.215Z,99992.47
2022-08-09T12:37:52.244Z,99986.91
2022-08-09T12:40:27.505Z,99985.94
2022-08-09T12:42:56.851Z,99977.03
2022-08-09T12:45:34.381Z,99970.38
2022-08-09T12:48:20.213Z,99979.06
2022-08-09T12:51:00.248Z,99978.00
2022-08-09T12:53:41.342Z,99978.03
2022-08-09T12:56:39.973Z,99972.09
2022-08-09T12:59:22.151Z,99967.81
2022-08-09T13:02:02.845Z,99968.44
2022-08-09T13:04:38.274Z,99972.50
2022-08-09T13:07:19.825Z,99962.97
2022-08-09T13:10:05.841Z,99972.03
2022-08-09T13:12:40.143Z,99971.38
2022-08-09T13:15:23.098Z,99962.34
2022-08-09T13:18:04.721Z,99955.66
2022-08-09T13:21:04.154Z,99966.31
2022-08-09T13:24:16.340Z,99964.00
2022-08-09T13:26:43.681Z,99959.69
2022-08-09T13:29:42.093Z,99958.88
2022-08-09T13:32:16.241Z,99957.41
2022-08-09T13:34:48.564Z,99959.28
2022-08-09T13:37:50.478Z,99961.00
2022-08-09T13:41:55.142Z,99960.13
2022-08-09T13:42:59.132Z,99965.47
2022-08-09T13:45:32.572Z,99964.00
2022-08-09T13:48:16.222Z,99953.78
2022-08-09T13:50:44.900Z,99964.84
2022-08-09T13:53:16.873Z,99961.00
2022-08-09T13:55:47.974Z,99955.78
2022-08-09T13:58:16.888Z,99954.00
2022-08-09T14:00:50.546Z,99958.44
2022-08-09T14:04:02.495Z,99959.13
2022-08-09T14:06:19.480Z,99962.28
2022-08-09T14:08:55.405Z,99962.31
2022-08-09T14:11:23.961Z,99963.31
2022-08-09T14:14:22.659Z,99965.59
2022-08-09T14:16:41.008Z,99959.50
2022-08-09T14:19:09.824Z,99961.41
2022-08-09T14:21:38.531Z,99963.78
2022-08-09T14:24:18.776Z,99970.38
2022-08-09T14:26:55.826Z,99969.50
2022-08-09T14:30:34.863Z,99971.25
2022-08-09T14:32:16.394Z,99962.50
2022-08-09T14:34:55.797Z,99959.31
2022-08-09T14:37:28.456Z,99958.78
2022-08-09T14:39:57.236Z,99951.63
2022-08-09T14:42:31.102Z,99947.38
2022-08-09T14:46:46.136Z,99942.63
2022-08-09T14:48:02.320Z,99942.63
2022-08-09T14:50:35.185Z,99947.38
2022-08-09T14:53:13.091Z,99945.25
2022-08-09T14:55:49.963Z,99943.97
2022-08-09T14:58:19.862Z,99940.31
2022-08-09T15:00:51.090Z,99938.84
2022-08-09T15:03:21.210Z,99937.78
2022-08-09T15:05:53.771Z,99937.03
2022-08-09T15:08:25.798Z,99932.06
2022-08-09T15:11:01.393Z,99941.41
2022-08-09T15:13:48.080Z,99932.03
2022-08-09T15:16:23.057Z,99931.56
2022-08-09T15:18:59.728Z,99935.47
2022-08-09T15:21:56.202Z,99941.16
2022-08-09T15:24:23.385Z,99943.34
2022-08-09T15:26:55.753Z,99935.47
2022-08-09T15:30:55.431Z,99927.78
2022-08-09T15:32:29.707Z,99934.13
2022-08-09T15:35:00.998Z,99940.75
2022-08-09T15:37:56.773Z,99944.13
2022-08-09T15:40:32.023Z,99934.97
2022-08-09T15:43:02.514Z,99938.81
2022-08-09T15:46:08.084Z,99948.88
2022-08-09T15:48:28.862Z,99941.81
2022-08-09T15:51:01.119Z,99942.19
2022-08-09T15:54:03.905Z,99944.66
2022-08-09T15:56:21.736Z,99938.59
2022-08-09T15:58:58.505Z,99947.09
2022-08-09T16:01:27.497Z,99949.56
2022-08-09T16:04:00.194Z,99948.78
2022-08-09T16:06:34.791Z,99954.31
2022-08-09T16:09:06.704Z,99944.19
2022-08-09T16:11:35.340Z,99945.38
2022-08-09T16:14:07.898Z,99944.13
2022-08-09T16:16:41.985Z,99946.09
2022-08-09T16:19:14.583Z,99949.56
2022-08-09T16:21:51.655Z,99957.03
2022-08-09T16:24:33.797Z,99947.97
2022-08-09T16:27:05.225Z,99956.78
2022-08-09T16:29:37.342Z,99955.31
2022-08-09T16:32:49.633Z,99949.41
2022-08-09T16:35:07.837Z,99951.25
2022-08-09T16:37:56.047Z,99948.97
2022-08-09T16:40:29.644Z,99946.28
2022-08-09T16:43:09.358Z,99952.66
2022-08-09T16:45:43.883Z,99948.78
2022-08-09T16:48:39.805Z,99954.66
2022-08-09T16:51:08.189Z,99952.41
2022-08-09T16:54:22.458Z,99954.66
2022-08-09T16:56:35.139Z,99951.56
2022-08-09T16:59:10.553Z,99956.28
2022-08-09T17:01:42.276Z,99966.34
2022-08-09T17:04:25.522Z,99964.28
2022-08-09T17:08:45.077Z,99966.09
2022-08-09T17:09:47.317Z,99968.97
2022-08-09T17:12:17.579Z,99959.31
2022-08-09T17:14:48.606Z,99964.63
2022-08-09T17:17:26.519Z,99962.94
2022-08-09T17:20:28.534Z,99974.78
2022-08-09T17:22:51.672Z,99967.41
2022-08-09T17:25:23.501Z,99966.25
2022-08-09T17:27:55.237Z,99973.19
2022-08-09T17:30:30.754Z,99968.00
2022-08-09T17:33:05.734Z,99964.47
2022-08-09T17:35:51.659Z,99978.97
2022-08-09T17:38:32.293Z,99989.00
2022-08-09T17:41:05.715Z,100000.81
2022-08-09T17:43:37.331Z,100004.22
2022-08-09T17:46:09.852Z,100002.84
2022-08-09T17:48:46.537Z,100006.53
2022-08-09T17:51:22.532Z,100007.78
2022-08-09T17:53:55.008Z,100017.47
2022-08-09T17:56:32.447Z,100019.13
2022-08-09T17:59:09.245Z,100027.78
2022-08-09T18:02:11.717Z,100032.25
2022-08-09T18:04:33.078Z,100028.78
2022-08-09T18:07:07.473Z,100040.31
2022-08-09T18:09:41.942Z,100049.00
2022-08-09T18:12:19.326Z,100050.94
2022-08-09T18:14:56.645Z,100056.31
2022-08-09T18:18:02.389Z,100060.00
2022-08-09T18:21:00.102Z,100069.84
2022-08-09T18:23:08.305Z,100075.09
2022-08-09T18:25:58.138Z,100077.41
2022-08-09T18:30:40.356Z,100081.22
2022-08-09T18:31:32.245Z,100087.00
2022-08-09T18:34:08.956Z,100097.03
2022-08-09T18:36:38.596Z,100093.69
2022-08-09T18:39:11.133Z,100095.72
2022-08-09T18:42:14.020Z,100104.03
2022-08-09T18:44:45.465Z,100108.88
2022-08-09T18:47:19.502Z,100115.56
2022-08-09T18:49:54.236Z,100113.66
2022-08-09T18:52:24.867Z,100113.66
2022-08-09T18:55:05.566Z,100114.50
2022-08-09T18:57:45.434Z,100124.97
2022-08-09T19:00:20.213Z,100130.28
2022-08-09T19:02:51.293Z,100139.72
2022-08-09T19:05:28.696Z,100140.22
2022-08-09T19:08:19.625Z,100144.19
2022-08-09T19:10:50.678Z,100138.88
2022-08-09T19:13:23.632Z,100139.38
2022-08-09T19:16:09.191Z,100150.00
2022-08-09T19:18:44.321Z,100151.19
2022-08-09T19:21:15.455Z,100138.31
2022-08-09T19:24:31.980Z,100135.34
2022-08-09T19:26:38.575Z,100132.09
2022-08-09T19:29:18.418Z,100143.06
2022-08-09T19:31:51.451Z,100139.09
2022-08-09T19:34:24.830Z,100147.47
2022-08-09T19:37:00.131Z,100154.97
2022-08-09T19:40:02.597Z,100157.25
2022-08-09T19:42:20.431Z,100158.25
2022-08-09T19:44:57.761Z,100159.91
2022-08-09T19:47:27.467Z,100162.75
2022-08-09T19:50:08.331Z,100168.91
2022-08-09T19:52:52.042Z,100161.53
2022-08-09T19:55:30.813Z,100160.28
2022-08-09T19:58:16.351Z,100170.16
2022-08-09T20:00:47.600Z,100172.31
2022-08-09T20:04:07.181Z,100167.41
2022-08-09T20:06:22.749Z,100171.38
2022-08-09T20:08:56.796Z,100179.00
2022-08-09T20:11:43.173Z,100177.56
2022-08-09T20:14:15.735Z,100181.75
2022-08-09T20:16:54.011Z,100188.41
2022-08-09T20:19:47.880Z,100187.22
2022-08-09T20:22:14.844Z,100188.50
2022-08-09T20:24:51.370Z,100190.06
2022-08-09T20:27:24.103Z,100204.50
2022-08-09T20:29:52.783Z,100203.59
2022-08-09T20:32:30.186Z,100213.91
2022-08-09T20:35:02.955Z,100212.06
2022-08-09T20:38:21.868Z,100201.66
2022-08-09T20:40:28.087Z,100198.81
2022-08-09T20:43:17.889Z,100195.94
2022-08-09T20:45:59.709Z,100202.09
2022-08-09T20:48:32.050Z,100201.13
2022-08-09T20:51:02.917Z,100197.03
2022-08-09T20:53:36.704Z,100194.13
2022-08-09T20:56:21.302Z,100190.72
2022-08-09T20:58:54.268Z,100185.69
2022-08-09T21:01:35.121Z,100188.56
2022-08-09T21:05:51.412Z,100191.06
2022-08-09T21:07:13.026Z,100197.88
2022-08-09T21:09:56.643Z,100197.41
2022-08-09T21:15:23.702Z,100198.94
2022-08-09T21:18:21.163Z,100189.91
2022-08-09T21:20:54.406Z,100191.56
2022-08-09T21:23:35.954Z,100195.75
2022-08-09T21:26:15.526Z,100197.63
2022-08-09T21:28:55.663Z,100194.00
2022-08-09T21:31:48.704Z,100197.88
2022-08-09T21:34:28.554Z,100201.19
2022-08-09T21:36:58.060Z,100210.88
2022-08-09T21:39:27.785Z,100221.91
2022-08-09T21:42:12.079Z,100215.41
2022-08-09T21:44:42.838Z,100210.09
2022-08-09T21:47:18.249Z,100203.34
2022-08-09T21:49:48.299Z,100209.22
2022-08-09T21:52:20.711Z,100209.69
2022-08-09T21:55:02.852Z,100202.25
2022-08-09T21:57:59.238Z,100205.16
2022-08-09T22:00:36.637Z,100203.19
2022-08-09T22:03:19.124Z,100201.47
2022-08-09T22:05:55.715Z,100200.31
2022-08-09T22:08:26.745Z,100191.22
2022-08-09T22:11:05.083Z,100193.38
2022-08-09T22:13:45.159Z,100183.81
2022-08-09T22:16:13.548Z,100180.41
2022-08-09T22:18:54.821Z,100182.34
2022-08-09T22:21:45.337Z,100179.84
2022-08-09T22:24:21.022Z,100188.06
2022-08-09T22:26:54.992Z,100176.69
2022-08-09T22:29:32.242Z,100184.91
2022-08-09T22:32:30.214Z,100174.78
2022-08-09T22:35:06.324Z,100176.06
2022-08-09T22:37:49.473Z,100178.75
2022-08-09T22:40:36.468Z,100177.91
2022-08-09T22:43:08.711Z,100170.09
2022-08-09T22:48:10.774Z,100171.47
2022-08-09T22:48:36.014Z,100174.56
2022-08-09T22:51:10.963Z,100169.22
2022-08-09T22:54:02.072Z,100164.66
2022-08-09T22:56:33.907Z,100174.22
2022-08-09T22:59:05.978Z,100166.94
2022-08-09T23:01:53.644Z,100163.75
2022-08-09T23:04:22.127Z,100171.81
2022-08-09T23:07:16.170Z,100165.28
2022-08-09T23:09:44.666Z,100166.94
2022-08-09T23:12:13.147Z,100157.38
2022-08-09T23:14:44.399Z,100159.78
2022-08-09T23:17:13.971Z,100155.38
2022-08-09T23:20:06.933Z,100164.84
2022-08-09T23:22:30.900Z,100162.53
2022-08-09T23:24:59.339Z,100161.78
2022-08-09T23:27:27.781Z,100157.47
2022-08-09T23:29:56.177Z,100163.81
2022-08-09T23:32:25.695Z,100163.13
2022-08-09T23:34:54.093Z,100155.91
2022-08-09T23:37:25.490Z,100160.56
2022-08-09T23:39:54.108Z,100157.69
2022-08-09T23:42:22.469Z,100150.25
2022-08-09T23:44:51.970Z,100153.09
2022-08-09T23:47:20.415Z,100157.84
2022-08-09T23:49:48.805Z,100157.97
2022-08-09T23:52:17.276Z,100155.25
2022-08-09T23:54:46.822Z,100158.66
2022-08-09T23:57:18.593Z,100167.31
